sensor_id;sensor_type;location;lat;lon;timestamp;P1;durP1;ratioP1;P2;durP2;ratioP2
63110;SDS011;49201;53.426;10.300;2022-12-29T00:01:31;4.67;;;4.00;;
63110;SDS011;49201;53.426;10.300;2022-12-29T00:03:57;6.10;;;4.03;;
63110;SDS011;49201;53.426;10.300;2022-12-29T00:06:22;4.03;;;3.63;;
63110;SDS011;49201;53.426;10.300;2022-12-29T00:08:48;5.53;;;4.17;;
63110;SDS011;49201;53.426;10.300;2022-12-29T00:11:14;6.00;;;4.00;;
63110;SDS011;49201;53.426;10.300;2022-12-29T00:13:42;4.90;;;3.93;;
63110;SDS011;49201;53.426;10.300;2022-12-29T00:16:26;4.83;;;3.93;;
63110;SDS011;49201;53.426;10.300;2022-12-29T00:18:52;4.87;;;3.87;;
63110;SDS011;49201;53.426;10.300;2022-12-29T00:21:18;7.17;;;4.07;;
63110;SDS011;49201;53.426;10.300;2022-12-29T00:24:05;4.80;;;4.20;;
63110;SDS011;49201;53.426;10.300;2022-12-29T00:27:09;4.90;;;4.33;;
63110;SDS011;49201;53.426;10.300;2022-12-29T00:29:55;6.03;;;4.10;;
63110;SDS011;49201;53.426;10.300;2022-12-29T00:32:39;4.57;;;3.80;;
63110;SDS011;49201;53.426;10.300;2022-12-29T00:35:28;4.63;;;3.80;;
63110;SDS011;49201;53.426;10.300;2022-12-29T00:37:55;4.40;;;4.00;;
63110;SDS011;49201;53.426;10.300;2022-12-29T00:40:42;4.40;;;4.00;;
63110;SDS011;49201;53.426;10.300;2022-12-29T00:43:26;5.10;;;3.90;;
63110;SDS011;49201;53.426;10.300;2022-12-29T00:46:10;4.43;;;3.97;;
63110;SDS011;49201;53.426;10.300;2022-12-29T00:48:35;4.30;;;3.93;;
63110;SDS011;49201;53.426;10.300;2022-12-29T00:51:19;5.33;;;4.03;;
63110;SDS011;49201;53.426;10.300;2022-12-29T00:53:44;6.20;;;3.63;;
63110;SDS011;49201;53.426;10.300;2022-12-29T00:56:10;5.67;;;3.83;;
63110;SDS011;49201;53.426;10.300;2022-12-29T00:58:35;5.93;;;3.57;;
63110;SDS011;49201;53.426;10.300;2022-12-29T01:01:04;4.17;;;3.40;;
63110;SDS011;49201;53.426;10.300;2022-12-29T01:03:31;5.80;;;4.00;;
63110;SDS011;49201;53.426;10.300;2022-12-29T01:06:01;4.10;;;3.70;;
63110;SDS011;49201;53.426;10.300;2022-12-29T01:08:28;4.40;;;3.20;;
63110;SDS011;49201;53.426;10.300;2022-12-29T01:11:04;5.40;;;3.80;;
63110;SDS011;49201;53.426;10.300;2022-12-29T01:13:31;3.70;;;3.40;;
63110;SDS011;49201;53.426;10.300;2022-12-29T01:15:57;3.43;;;3.13;;
63110;SDS011;49201;53.426;10.300;2022-12-29T01:18:23;5.23;;;3.23;;
63110;SDS011;49201;53.426;10.300;2022-12-29T01:20:50;3.80;;;3.07;;
63110;SDS011;49201;53.426;10.300;2022-12-29T01:23:16;3.73;;;3.43;;
63110;SDS011;49201;53.426;10.300;2022-12-29T01:25:44;4.27;;;3.43;;
63110;SDS011;49201;53.426;10.300;2022-12-29T01:28:09;3.07;;;2.63;;
63110;SDS011;49201;53.426;10.300;2022-12-29T01:30:35;3.57;;;3.27;;
63110;SDS011;49201;53.426;10.300;2022-12-29T01:33:00;3.30;;;2.87;;
63110;SDS011;49201;53.426;10.300;2022-12-29T01:35:26;3.57;;;3.13;;
63110;SDS011;49201;53.426;10.300;2022-12-29T01:37:52;5.77;;;3.60;;
63110;SDS011;49201;53.426;10.300;2022-12-29T01:40:17;3.90;;;3.10;;
63110;SDS011;49201;53.426;10.300;2022-12-29T01:42:44;4.43;;;3.30;;
63110;SDS011;49201;53.426;10.300;2022-12-29T01:45:10;4.50;;;4.10;;
63110;SDS011;49201;53.426;10.300;2022-12-29T01:47:54;6.13;;;3.80;;
63110;SDS011;49201;53.426;10.300;2022-12-29T01:52:54;4.23;;;3.83;;
63110;SDS011;49201;53.426;10.300;2022-12-29T01:55:26;4.20;;;3.80;;
63110;SDS011;49201;53.426;10.300;2022-12-29T01:57:54;3.90;;;3.50;;
63110;SDS011;49201;53.426;10.300;2022-12-29T02:00:24;4.53;;;3.80;;
63110;SDS011;49201;53.426;10.300;2022-12-29T02:02:53;3.50;;;3.20;;
63110;SDS011;49201;53.426;10.300;2022-12-29T02:07:58;5.63;;;3.50;;
63110;SDS011;49201;53.426;10.300;2022-12-29T02:10:26;5.77;;;3.77;;
63110;SDS011;49201;53.426;10.300;2022-12-29T02:12:55;3.27;;;2.97;;
63110;SDS011;49201;53.426;10.300;2022-12-29T02:15:26;5.10;;;3.50;;
63110;SDS011;49201;53.426;10.300;2022-12-29T02:20:34;3.40;;;3.10;;
63110;SDS011;49201;53.426;10.300;2022-12-29T02:28:57;3.10;;;2.80;;
63110;SDS011;49201;53.426;10.300;2022-12-29T02:37:28;4.50;;;3.30;;
63110;SDS011;49201;53.426;10.300;2022-12-29T02:42:38;4.00;;;3.30;;
63110;SDS011;49201;53.426;10.300;2022-12-29T02:50:33;3.67;;;3.37;;
63110;SDS011;49201;53.426;10.300;2022-12-29T02:53:07;6.13;;;3.37;;
63110;SDS011;49201;53.426;10.300;2022-12-29T02:55:36;4.03;;;3.43;;
63110;SDS011;49201;53.426;10.300;2022-12-29T02:58:23;4.93;;;3.60;;
63110;SDS011;49201;53.426;10.300;2022-12-29T03:08:54;5.23;;;3.73;;
63110;SDS011;49201;53.426;10.300;2022-12-29T03:11:41;3.37;;;3.07;;
63110;SDS011;49201;53.426;10.300;2022-12-29T03:14:35;6.97;;;3.60;;
63110;SDS011;49201;53.426;10.300;2022-12-29T03:17:54;4.37;;;3.53;;
63110;SDS011;49201;53.426;10.300;2022-12-29T03:20:50;3.33;;;3.03;;
63110;SDS011;49201;53.426;10.300;2022-12-29T03:23:27;4.13;;;3.47;;
63110;SDS011;49201;53.426;10.300;2022-12-29T03:25:57;5.00;;;2.80;;
63110;SDS011;49201;53.426;10.300;2022-12-29T03:28:31;4.13;;;2.50;;
63110;SDS011;49201;53.426;10.300;2022-12-29T03:31:01;3.17;;;2.70;;
63110;SDS011;49201;53.426;10.300;2022-12-29T03:33:29;3.13;;;2.57;;
63110;SDS011;49201;53.426;10.300;2022-12-29T03:36:00;3.90;;;2.43;;
63110;SDS011;49201;53.426;10.300;2022-12-29T03:38:39;3.40;;;2.37;;
63110;SDS011;49201;53.426;10.300;2022-12-29T03:41:12;3.60;;;2.37;;
63110;SDS011;49201;53.426;10.300;2022-12-29T03:43:42;3.40;;;2.00;;
63110;SDS011;49201;53.426;10.300;2022-12-29T03:46:08;2.63;;;2.20;;
63110;SDS011;49201;53.426;10.300;2022-12-29T03:48:34;3.47;;;2.27;;
63110;SDS011;49201;53.426;10.300;2022-12-29T03:50:59;2.63;;;1.70;;
63110;SDS011;49201;53.426;10.300;2022-12-29T03:53:26;2.53;;;1.97;;
63110;SDS011;49201;53.426;10.300;2022-12-29T03:55:52;3.23;;;1.70;;
63110;SDS011;49201;53.426;10.300;2022-12-29T03:58:17;4.50;;;1.80;;
63110;SDS011;49201;53.426;10.300;2022-12-29T04:01:04;3.07;;;2.07;;
63110;SDS011;49201;53.426;10.300;2022-12-29T04:03:32;2.53;;;1.90;;
63110;SDS011;49201;53.426;10.300;2022-12-29T04:05:58;2.23;;;1.80;;
63110;SDS011;49201;53.426;10.300;2022-12-29T04:08:24;2.10;;;1.90;;
63110;SDS011;49201;53.426;10.300;2022-12-29T04:10:49;1.93;;;1.73;;
63110;SDS011;49201;53.426;10.300;2022-12-29T04:13:16;1.97;;;1.60;;
63110;SDS011;49201;53.426;10.300;2022-12-29T04:15:42;3.83;;;1.70;;
63110;SDS011;49201;53.426;10.300;2022-12-29T04:18:09;3.07;;;1.50;;
63110;SDS011;49201;53.426;10.300;2022-12-29T04:20:34;1.83;;;1.57;;
63110;SDS011;49201;53.426;10.300;2022-12-29T04:23:18;2.10;;;1.77;;
63110;SDS011;49201;53.426;10.300;2022-12-29T04:25:47;1.87;;;1.70;;
63110;SDS011;49201;53.426;10.300;2022-12-29T04:28:14;1.83;;;1.47;;
63110;SDS011;49201;53.426;10.300;2022-12-29T04:30:49;1.93;;;1.80;;
63110;SDS011;49201;53.426;10.300;2022-12-29T04:33:35;1.70;;;1.40;;
63110;SDS011;49201;53.426;10.300;2022-12-29T04:36:01;2.20;;;1.40;;
63110;SDS011;49201;53.426;10.300;2022-12-29T04:38:27;1.60;;;1.50;;
63110;SDS011;49201;53.426;10.300;2022-12-29T04:40:53;1.67;;;1.53;;
63110;SDS011;49201;53.426;10.300;2022-12-29T04:43:21;2.50;;;1.37;;
63110;SDS011;49201;53.426;10.300;2022-12-29T04:46:12;1.53;;;1.40;;
63110;SDS011;49201;53.426;10.300;2022-12-29T04:49:03;3.37;;;1.73;;
63110;SDS011;49201;53.426;10.300;2022-12-29T04:52:12;1.97;;;1.80;;
63110;SDS011;49201;53.426;10.300;2022-12-29T04:54:38;2.20;;;1.70;;
63110;SDS011;49201;53.426;10.300;2022-12-29T04:57:10;2.90;;;1.40;;
63110;SDS011;49201;53.426;10.300;2022-12-29T04:59:37;3.40;;;1.70;;
63110;SDS011;49201;53.426;10.300;2022-12-29T05:02:03;2.20;;;1.80;;
63110;SDS011;49201;53.426;10.300;2022-12-29T05:04:31;2.97;;;1.77;;
63110;SDS011;49201;53.426;10.300;2022-12-29T05:06:56;2.57;;;1.47;;
63110;SDS011;49201;53.426;10.300;2022-12-29T05:09:22;1.90;;;1.57;;
63110;SDS011;49201;53.426;10.300;2022-12-29T05:11:48;2.30;;;1.80;;
63110;SDS011;49201;53.426;10.300;2022-12-29T05:14:14;2.27;;;1.80;;
63110;SDS011;49201;53.426;10.300;2022-12-29T05:16:40;2.40;;;1.80;;
63110;SDS011;49201;53.426;10.300;2022-12-29T05:19:05;1.80;;;1.60;;
63110;SDS011;49201;53.426;10.300;2022-12-29T05:21:31;3.53;;;1.70;;
63110;SDS011;49201;53.426;10.300;2022-12-29T05:23:58;2.60;;;2.03;;
63110;SDS011;49201;53.426;10.300;2022-12-29T05:26:23;2.27;;;2.07;;
63110;SDS011;49201;53.426;10.300;2022-12-29T05:29:15;1.93;;;1.70;;
63110;SDS011;49201;53.426;10.300;2022-12-29T05:31:41;2.40;;;2.20;;
63110;SDS011;49201;53.426;10.300;2022-12-29T05:34:06;3.33;;;1.90;;
63110;SDS011;49201;53.426;10.300;2022-12-29T05:36:32;2.00;;;1.80;;
63110;SDS011;49201;53.426;10.300;2022-12-29T05:39:02;1.90;;;1.80;;
63110;SDS011;49201;53.426;10.300;2022-12-29T05:41:29;2.63;;;1.70;;
63110;SDS011;49201;53.426;10.300;2022-12-29T05:44:12;2.03;;;1.83;;
63110;SDS011;49201;53.426;10.300;2022-12-29T05:46:44;2.53;;;2.00;;
63110;SDS011;49201;53.426;10.300;2022-12-29T05:49:30;1.90;;;1.80;;
63110;SDS011;49201;53.426;10.300;2022-12-29T05:52:14;1.50;;;1.30;;
63110;SDS011;49201;53.426;10.300;2022-12-29T05:54:39;2.60;;;1.50;;
63110;SDS011;49201;53.426;10.300;2022-12-29T05:57:10;2.37;;;1.60;;
63110;SDS011;49201;53.426;10.300;2022-12-29T05:59:37;2.23;;;1.40;;
63110;SDS011;49201;53.426;10.300;2022-12-29T06:02:04;1.90;;;1.53;;
63110;SDS011;49201;53.426;10.300;2022-12-29T06:04:30;2.70;;;1.93;;
63110;SDS011;49201;53.426;10.300;2022-12-29T06:06:56;1.47;;;1.30;;
63110;SDS011;49201;53.426;10.300;2022-12-29T06:09:41;2.10;;;1.47;;
63110;SDS011;49201;53.426;10.300;2022-12-29T06:12:07;1.50;;;1.40;;
63110;SDS011;49201;53.426;10.300;2022-12-29T06:14:32;2.27;;;1.77;;
63110;SDS011;49201;53.426;10.300;2022-12-29T06:16:59;2.17;;;1.60;;
63110;SDS011;49201;53.426;10.300;2022-12-29T06:19:25;2.70;;;1.73;;
63110;SDS011;49201;53.426;10.300;2022-12-29T06:21:50;2.47;;;1.50;;
63110;SDS011;49201;53.426;10.300;2022-12-29T06:24:18;2.37;;;1.47;;
63110;SDS011;49201;53.426;10.300;2022-12-29T06:26:43;1.90;;;1.70;;
63110;SDS011;49201;53.426;10.300;2022-12-29T06:29:09;1.67;;;1.37;;
63110;SDS011;49201;53.426;10.300;2022-12-29T06:31:35;1.57;;;1.47;;
63110;SDS011;49201;53.426;10.300;2022-12-29T06:34:01;1.43;;;1.20;;
63110;SDS011;49201;53.426;10.300;2022-12-29T06:36:28;2.87;;;1.50;;
63110;SDS011;49201;53.426;10.300;2022-12-29T06:38:53;2.73;;;1.30;;
63110;SDS011;49201;53.426;10.300;2022-12-29T06:41:19;1.73;;;1.20;;
63110;SDS011;49201;53.426;10.300;2022-12-29T06:44:04;1.77;;;1.50;;
63110;SDS011;49201;53.426;10.300;2022-12-29T06:46:48;1.97;;;1.67;;
63110;SDS011;49201;53.426;10.300;2022-12-29T06:49:14;1.63;;;1.20;;
63110;SDS011;49201;53.426;10.300;2022-12-29T06:51:39;1.83;;;1.40;;
63110;SDS011;49201;53.426;10.300;2022-12-29T06:54:05;1.60;;;1.50;;
63110;SDS011;49201;53.426;10.300;2022-12-29T06:56:30;2.03;;;1.27;;
63110;SDS011;49201;53.426;10.300;2022-12-29T06:58:56;2.60;;;1.80;;
63110;SDS011;49201;53.426;10.300;2022-12-29T07:01:21;2.43;;;1.63;;
63110;SDS011;49201;53.426;10.300;2022-12-29T07:03:47;2.40;;;1.50;;
63110;SDS011;49201;53.426;10.300;2022-12-29T07:06:13;1.70;;;1.60;;
63110;SDS011;49201;53.426;10.300;2022-12-29T07:08:38;2.07;;;1.37;;
63110;SDS011;49201;53.426;10.300;2022-12-29T07:11:04;2.83;;;1.60;;
63110;SDS011;49201;53.426;10.300;2022-12-29T07:13:30;3.30;;;1.33;;
63110;SDS011;49201;53.426;10.300;2022-12-29T07:15:55;2.13;;;1.50;;
63110;SDS011;49201;53.426;10.300;2022-12-29T07:18:20;2.37;;;1.77;;
63110;SDS011;49201;53.426;10.300;2022-12-29T07:20:46;2.57;;;1.70;;
63110;SDS011;49201;53.426;10.300;2022-12-29T07:23:11;1.77;;;1.67;;
63110;SDS011;49201;53.426;10.300;2022-12-29T07:25:37;2.40;;;1.43;;
63110;SDS011;49201;53.426;10.300;2022-12-29T07:28:03;1.70;;;1.40;;
63110;SDS011;49201;53.426;10.300;2022-12-29T07:30:29;2.93;;;1.30;;
63110;SDS011;49201;53.426;10.300;2022-12-29T07:32:54;2.63;;;1.30;;
63110;SDS011;49201;53.426;10.300;2022-12-29T07:35:20;1.03;;;0.93;;
63110;SDS011;49201;53.426;10.300;2022-12-29T07:37:45;2.00;;;0.90;;
63110;SDS011;49201;53.426;10.300;2022-12-29T07:40:10;2.30;;;1.03;;
63110;SDS011;49201;53.426;10.300;2022-12-29T07:42:37;2.00;;;0.87;;
63110;SDS011;49201;53.426;10.300;2022-12-29T07:45:06;2.83;;;0.93;;
63110;SDS011;49201;53.426;10.300;2022-12-29T07:47:52;3.50;;;1.37;;
63110;SDS011;49201;53.426;10.300;2022-12-29T07:50:18;2.23;;;1.03;;
63110;SDS011;49201;53.426;10.300;2022-12-29T07:52:43;2.07;;;0.93;;
63110;SDS011;49201;53.426;10.300;2022-12-29T07:55:09;1.30;;;1.20;;
63110;SDS011;49201;53.426;10.300;2022-12-29T07:57:35;1.63;;;1.10;;
63110;SDS011;49201;53.426;10.300;2022-12-29T08:00:01;1.43;;;1.20;;
63110;SDS011;49201;53.426;10.300;2022-12-29T08:02:37;4.07;;;1.60;;
63110;SDS011;49201;53.426;10.300;2022-12-29T08:05:03;2.93;;;1.67;;
63110;SDS011;49201;53.426;10.300;2022-12-29T08:07:28;2.67;;;1.60;;
63110;SDS011;49201;53.426;10.300;2022-12-29T08:09:54;3.10;;;1.50;;
63110;SDS011;49201;53.426;10.300;2022-12-29T08:12:19;1.90;;;1.50;;
63110;SDS011;49201;53.426;10.300;2022-12-29T08:14:45;3.37;;;1.57;;
63110;SDS011;49201;53.426;10.300;2022-12-29T08:17:10;1.90;;;1.33;;
63110;SDS011;49201;53.426;10.300;2022-12-29T08:19:36;1.23;;;1.10;;
63110;SDS011;49201;53.426;10.300;2022-12-29T08:22:02;2.27;;;1.30;;
63110;SDS011;49201;53.426;10.300;2022-12-29T08:24:27;1.97;;;1.30;;
63110;SDS011;49201;53.426;10.300;2022-12-29T08:26:53;1.70;;;1.30;;
63110;SDS011;49201;53.426;10.300;2022-12-29T08:29:18;2.13;;;1.10;;
63110;SDS011;49201;53.426;10.300;2022-12-29T08:31:44;1.83;;;1.10;;
63110;SDS011;49201;53.426;10.300;2022-12-29T08:34:10;1.60;;;1.07;;
63110;SDS011;49201;53.426;10.300;2022-12-29T08:36:36;1.47;;;0.90;;
63110;SDS011;49201;53.426;10.300;2022-12-29T08:39:01;1.70;;;1.00;;
63110;SDS011;49201;53.426;10.300;2022-12-29T08:41:27;1.37;;;1.07;;
63110;SDS011;49201;53.426;10.300;2022-12-29T08:43:52;3.33;;;1.30;;
63110;SDS011;49201;53.426;10.300;2022-12-29T08:46:18;2.00;;;0.70;;
63110;SDS011;49201;53.426;10.300;2022-12-29T08:48:44;2.20;;;0.90;;
63110;SDS011;49201;53.426;10.300;2022-12-29T08:51:10;2.60;;;0.80;;
63110;SDS011;49201;53.426;10.300;2022-12-29T08:53:35;4.97;;;0.87;;
63110;SDS011;49201;53.426;10.300;2022-12-29T08:56:01;6.00;;;1.07;;
63110;SDS011;49201;53.426;10.300;2022-12-29T08:58:27;2.13;;;0.80;;
63110;SDS011;49201;53.426;10.300;2022-12-29T09:00:54;1.00;;;0.90;;
63110;SDS011;49201;53.426;10.300;2022-12-29T09:03:20;4.17;;;1.13;;
63110;SDS011;49201;53.426;10.300;2022-12-29T09:05:53;1.00;;;0.50;;
63110;SDS011;49201;53.426;10.300;2022-12-29T09:08:19;1.37;;;0.80;;
63110;SDS011;49201;53.426;10.300;2022-12-29T09:10:45;2.90;;;1.07;;
63110;SDS011;49201;53.426;10.300;2022-12-29T09:13:11;1.63;;;0.73;;
63110;SDS011;49201;53.426;10.300;2022-12-29T09:15:37;2.23;;;0.80;;
63110;SDS011;49201;53.426;10.300;2022-12-29T09:18:03;2.60;;;0.63;;
63110;SDS011;49201;53.426;10.300;2022-12-29T09:20:29;2.80;;;0.90;;
63110;SDS011;49201;53.426;10.300;2022-12-29T09:22:54;1.70;;;0.77;;
63110;SDS011;49201;53.426;10.300;2022-12-29T09:25:20;2.07;;;0.73;;
63110;SDS011;49201;53.426;10.300;2022-12-29T09:27:47;3.00;;;0.60;;
63110;SDS011;49201;53.426;10.300;2022-12-29T09:30:13;2.17;;;1.17;;
63110;SDS011;49201;53.426;10.300;2022-12-29T09:32:39;2.87;;;1.07;;
63110;SDS011;49201;53.426;10.300;2022-12-29T09:35:05;3.10;;;1.10;;
63110;SDS011;49201;53.426;10.300;2022-12-29T09:37:31;7.00;;;1.27;;
63110;SDS011;49201;53.426;10.300;2022-12-29T09:39:57;1.63;;;0.70;;
63110;SDS011;49201;53.426;10.300;2022-12-29T09:47:40;3.13;;;1.20;;
63110;SDS011;49201;53.426;10.300;2022-12-29T09:52:55;1.37;;;1.00;;
63110;SDS011;49201;53.426;10.300;2022-12-29T09:55:39;3.87;;;1.03;;
63110;SDS011;49201;53.426;10.300;2022-12-29T09:58:12;3.30;;;0.97;;
63110;SDS011;49201;53.426;10.300;2022-12-29T10:01:01;2.90;;;1.03;;
63110;SDS011;49201;53.426;10.300;2022-12-29T10:06:32;5.53;;;1.57;;
63110;SDS011;49201;53.426;10.300;2022-12-29T10:09:17;3.93;;;0.93;;
63110;SDS011;49201;53.426;10.300;2022-12-29T10:12:08;4.40;;;1.37;;
63110;SDS011;49201;53.426;10.300;2022-12-29T10:17:41;4.17;;;1.13;;
63110;SDS011;49201;53.426;10.300;2022-12-29T10:20:15;3.67;;;1.03;;
63110;SDS011;49201;53.426;10.300;2022-12-29T10:22:57;4.87;;;1.50;;
63110;SDS011;49201;53.426;10.300;2022-12-29T10:25:46;4.00;;;1.10;;
63110;SDS011;49201;53.426;10.300;2022-12-29T10:28:17;7.83;;;1.30;;
63110;SDS011;49201;53.426;10.300;2022-12-29T10:30:43;5.27;;;1.40;;
63110;SDS011;49201;53.426;10.300;2022-12-29T10:33:13;4.50;;;1.27;;
63110;SDS011;49201;53.426;10.300;2022-12-29T10:35:43;3.57;;;1.20;;
63110;SDS011;49201;53.426;10.300;2022-12-29T10:41:02;3.47;;;1.10;;
63110;SDS011;49201;53.426;10.300;2022-12-29T10:43:44;3.90;;;1.23;;
63110;SDS011;49201;53.426;10.300;2022-12-29T10:46:16;5.77;;;1.43;;
63110;SDS011;49201;53.426;10.300;2022-12-29T10:48:46;3.60;;;1.20;;
63110;SDS011;49201;53.426;10.300;2022-12-29T10:51:22;5.90;;;1.83;;
63110;SDS011;49201;53.426;10.300;2022-12-29T10:53:54;2.53;;;1.20;;
63110;SDS011;49201;53.426;10.300;2022-12-29T10:56:33;7.77;;;1.60;;
63110;SDS011;49201;53.426;10.300;2022-12-29T11:07:27;5.07;;;2.13;;
63110;SDS011;49201;53.426;10.300;2022-12-29T11:09:55;5.40;;;1.50;;
63110;SDS011;49201;53.426;10.300;2022-12-29T11:12:56;3.87;;;1.63;;
63110;SDS011;49201;53.426;10.300;2022-12-29T11:15:26;5.83;;;1.60;;
63110;SDS011;49201;53.426;10.300;2022-12-29T11:17:53;4.50;;;1.17;;
63110;SDS011;49201;53.426;10.300;2022-12-29T11:23:03;3.27;;;1.07;;
63110;SDS011;49201;53.426;10.300;2022-12-29T11:25:30;4.83;;;1.13;;
63110;SDS011;49201;53.426;10.300;2022-12-29T11:27:59;7.23;;;1.27;;
63110;SDS011;49201;53.426;10.300;2022-12-29T11:30:28;4.43;;;1.23;;
63110;SDS011;49201;53.426;10.300;2022-12-29T11:32:55;7.27;;;1.70;;
63110;SDS011;49201;53.426;10.300;2022-12-29T11:37:59;7.10;;;1.60;;
63110;SDS011;49201;53.426;10.300;2022-12-29T11:40:27;6.20;;;1.27;;
63110;SDS011;49201;53.426;10.300;2022-12-29T11:42:54;4.43;;;1.17;;
63110;SDS011;49201;53.426;10.300;2022-12-29T11:45:22;4.17;;;1.07;;
63110;SDS011;49201;53.426;10.300;2022-12-29T11:47:52;2.70;;;1.00;;
63110;SDS011;49201;53.426;10.300;2022-12-29T11:50:24;2.10;;;0.90;;
63110;SDS011;49201;53.426;10.300;2022-12-29T11:52:57;7.23;;;1.43;;
63110;SDS011;49201;53.426;10.300;2022-12-29T11:55:26;5.80;;;1.10;;
63110;SDS011;49201;53.426;10.300;2022-12-29T11:57:53;3.33;;;1.00;;
63110;SDS011;49201;53.426;10.300;2022-12-29T12:00:22;4.30;;;1.13;;
63110;SDS011;49201;53.426;10.300;2022-12-29T12:02:58;4.17;;;1.30;;
63110;SDS011;49201;53.426;10.300;2022-12-29T12:05:31;4.20;;;1.07;;
63110;SDS011;49201;53.426;10.300;2022-12-29T12:08:08;3.10;;;0.90;;
63110;SDS011;49201;53.426;10.300;2022-12-29T12:10:37;4.13;;;1.30;;
63110;SDS011;49201;53.426;10.300;2022-12-29T12:13:23;3.80;;;1.00;;
63110;SDS011;49201;53.426;10.300;2022-12-29T12:21:20;3.83;;;1.40;;
63110;SDS011;49201;53.426;10.300;2022-12-29T12:23:55;3.43;;;1.10;;
63110;SDS011;49201;53.426;10.300;2022-12-29T12:26:35;6.63;;;1.70;;
63110;SDS011;49201;53.426;10.300;2022-12-29T12:29:12;5.10;;;1.40;;
63110;SDS011;49201;53.426;10.300;2022-12-29T12:31:48;6.37;;;1.33;;
63110;SDS011;49201;53.426;10.300;2022-12-29T12:34:27;5.63;;;1.60;;
63110;SDS011;49201;53.426;10.300;2022-12-29T12:50:43;7.43;;;1.30;;
63110;SDS011;49201;53.426;10.300;2022-12-29T12:58:44;5.50;;;1.63;;
63110;SDS011;49201;53.426;10.300;2022-12-29T13:04:39;7.83;;;1.43;;
63110;SDS011;49201;53.426;10.300;2022-12-29T13:12:36;6.83;;;1.20;;
63110;SDS011;49201;53.426;10.300;2022-12-29T13:23:12;6.27;;;1.37;;
63110;SDS011;49201;53.426;10.300;2022-12-29T13:31:24;5.27;;;1.50;;
63110;SDS011;49201;53.426;10.300;2022-12-29T13:34:10;6.00;;;1.43;;
63110;SDS011;49201;53.426;10.300;2022-12-29T13:36:51;8.47;;;1.87;;
63110;SDS011;49201;53.426;10.300;2022-12-29T13:42:00;6.33;;;1.43;;
63110;SDS011;49201;53.426;10.300;2022-12-29T13:44:38;5.67;;;1.30;;
63110;SDS011;49201;53.426;10.300;2022-12-29T13:49:54;6.50;;;1.40;;
63110;SDS011;49201;53.426;10.300;2022-12-29T14:03:31;6.00;;;1.30;;
63110;SDS011;49201;53.426;10.300;2022-12-29T14:08:46;6.30;;;1.20;;
63110;SDS011;49201;53.426;10.300;2022-12-29T14:11:14;6.83;;;1.60;;
63110;SDS011;49201;53.426;10.300;2022-12-29T14:13:43;4.20;;;1.30;;
63110;SDS011;49201;53.426;10.300;2022-12-29T14:16:32;6.13;;;1.00;;
63110;SDS011;49201;53.426;10.300;2022-12-29T14:19:38;2.63;;;1.10;;
63110;SDS011;49201;53.426;10.300;2022-12-29T14:21:56;4.47;;;1.10;;
63110;SDS011;49201;53.426;10.300;2022-12-29T14:34:49;4.43;;;1.10;;
63110;SDS011;49201;53.426;10.300;2022-12-29T14:37:32;6.80;;;1.10;;
63110;SDS011;49201;53.426;10.300;2022-12-29T14:40:19;4.00;;;1.13;;
63110;SDS011;49201;53.426;10.300;2022-12-29T14:42:51;3.03;;;1.00;;
63110;SDS011;49201;53.426;10.300;2022-12-29T14:47:46;3.73;;;1.33;;
63110;SDS011;49201;53.426;10.300;2022-12-29T14:53:03;3.73;;;1.23;;
63110;SDS011;49201;53.426;10.300;2022-12-29T14:55:47;3.53;;;1.30;;
63110;SDS011;49201;53.426;10.300;2022-12-29T14:58:20;6.83;;;1.30;;
63110;SDS011;49201;53.426;10.300;2022-12-29T15:00:53;5.07;;;1.33;;
63110;SDS011;49201;53.426;10.300;2022-12-29T15:03:21;6.03;;;1.60;;
63110;SDS011;49201;53.426;10.300;2022-12-29T15:05:55;3.50;;;0.90;;
63110;SDS011;49201;53.426;10.300;2022-12-29T15:08:24;5.17;;;1.00;;
63110;SDS011;49201;53.426;10.300;2022-12-29T15:13:35;4.37;;;1.10;;
63110;SDS011;49201;53.426;10.300;2022-12-29T15:16:03;2.73;;;1.30;;
63110;SDS011;49201;53.426;10.300;2022-12-29T15:18:30;4.33;;;1.30;;
63110;SDS011;49201;53.426;10.300;2022-12-29T15:20:58;3.93;;;1.30;;
63110;SDS011;49201;53.426;10.300;2022-12-29T15:23:26;4.13;;;1.20;;
63110;SDS011;49201;53.426;10.300;2022-12-29T15:25:56;4.40;;;1.13;;
63110;SDS011;49201;53.426;10.300;2022-12-29T15:28:23;4.47;;;1.27;;
63110;SDS011;49201;53.426;10.300;2022-12-29T15:30:54;4.43;;;1.40;;
63110;SDS011;49201;53.426;10.300;2022-12-29T15:33:21;4.17;;;1.33;;
63110;SDS011;49201;53.426;10.300;2022-12-29T15:35:51;8.70;;;1.83;;
63110;SDS011;49201;53.426;10.300;2022-12-29T15:40:52;4.47;;;1.67;;
63110;SDS011;49201;53.426;10.300;2022-12-29T15:43:41;8.10;;;1.77;;
63110;SDS011;49201;53.426;10.300;2022-12-29T15:46:10;5.10;;;1.50;;
63110;SDS011;49201;53.426;10.300;2022-12-29T15:48:37;4.70;;;1.40;;
63110;SDS011;49201;53.426;10.300;2022-12-29T15:51:03;4.77;;;1.40;;
63110;SDS011;49201;53.426;10.300;2022-12-29T15:53:42;4.87;;;1.50;;
63110;SDS011;49201;53.426;10.300;2022-12-29T15:56:12;5.20;;;1.27;;
63110;SDS011;49201;53.426;10.300;2022-12-29T15:58:42;7.60;;;1.50;;
63110;SDS011;49201;53.426;10.300;2022-12-29T16:03:49;5.20;;;1.50;;
63110;SDS011;49201;53.426;10.300;2022-12-29T16:09:04;6.60;;;1.63;;
63110;SDS011;49201;53.426;10.300;2022-12-29T16:11:41;5.90;;;1.50;;
63110;SDS011;49201;53.426;10.300;2022-12-29T16:14:21;4.23;;;1.30;;
63110;SDS011;49201;53.426;10.300;2022-12-29T16:16:56;7.70;;;1.43;;
63110;SDS011;49201;53.426;10.300;2022-12-29T16:22:03;7.83;;;1.60;;
63110;SDS011;49201;53.426;10.300;2022-12-29T16:24:36;5.27;;;1.80;;
63110;SDS011;49201;53.426;10.300;2022-12-29T16:27:19;5.67;;;1.80;;
63110;SDS011;49201;53.426;10.300;2022-12-29T16:29:48;6.30;;;1.30;;
63110;SDS011;49201;53.426;10.300;2022-12-29T16:32:25;4.80;;;1.80;;
63110;SDS011;49201;53.426;10.300;2022-12-29T16:35:10;5.33;;;1.73;;
63110;SDS011;49201;53.426;10.300;2022-12-29T16:37:44;5.73;;;1.57;;
63110;SDS011;49201;53.426;10.300;2022-12-29T16:40:26;5.77;;;1.50;;
63110;SDS011;49201;53.426;10.300;2022-12-29T16:42:59;6.57;;;1.73;;
63110;SDS011;49201;53.426;10.300;2022-12-29T16:50:38;4.90;;;1.87;;
63110;SDS011;49201;53.426;10.300;2022-12-29T16:53:05;7.60;;;1.97;;
63110;SDS011;49201;53.426;10.300;2022-12-29T16:56:05;6.57;;;2.10;;
63110;SDS011;49201;53.426;10.300;2022-12-29T16:58:38;4.47;;;2.20;;
63110;SDS011;49201;53.426;10.300;2022-12-29T17:01:04;6.23;;;2.03;;
63110;SDS011;49201;53.426;10.300;2022-12-29T17:03:40;5.70;;;1.70;;
63110;SDS011;49201;53.426;10.300;2022-12-29T17:06:14;7.70;;;2.20;;
63110;SDS011;49201;53.426;10.300;2022-12-29T17:08:41;5.40;;;2.03;;
63110;SDS011;49201;53.426;10.300;2022-12-29T17:11:14;5.90;;;2.10;;
63110;SDS011;49201;53.426;10.300;2022-12-29T17:14:02;7.47;;;2.33;;
63110;SDS011;49201;53.426;10.300;2022-12-29T17:16:27;5.47;;;1.90;;
63110;SDS011;49201;53.426;10.300;2022-12-29T17:18:52;7.53;;;2.23;;
63110;SDS011;49201;53.426;10.300;2022-12-29T17:21:18;3.50;;;1.57;;
63110;SDS011;49201;53.426;10.300;2022-12-29T17:23:43;6.53;;;2.17;;
63110;SDS011;49201;53.426;10.300;2022-12-29T17:26:09;7.60;;;2.10;;
63110;SDS011;49201;53.426;10.300;2022-12-29T17:28:36;4.90;;;1.87;;
63110;SDS011;49201;53.426;10.300;2022-12-29T17:31:02;7.03;;;1.97;;
63110;SDS011;49201;53.426;10.300;2022-12-29T17:33:32;7.60;;;1.93;;
63110;SDS011;49201;53.426;10.300;2022-12-29T17:36:01;5.33;;;1.80;;
63110;SDS011;49201;53.426;10.300;2022-12-29T17:38:31;7.77;;;2.17;;
63110;SDS011;49201;53.426;10.300;2022-12-29T17:40:58;6.23;;;2.13;;
63110;SDS011;49201;53.426;10.300;2022-12-29T17:43:24;6.43;;;2.30;;